Mercer County Airport
KBLF : now visible

Airfield :











YOU CAN JOIN US ON...

 
LOGIN :

Register | Disclaimer

   EN    FR    IT 

 









Legend :    VFR   Marginal VFR   IFR   Intensive IFR   Very Intensive IFR
Visi :
Ceiling :
>= 8 km
>= 3000ft
5 to 8 km
1000 to 3000 ft
1500m to 5 km
500 to 1000 ft
800 to 1500m
200 to 500 ft
< 800m
< 200 ft
Symbols :   Thunderstorms  Fog  Heavy snow  Heavy precipitations  Wind > 20 kt






- Airport Elevation : 2857 ft
- IATA code : BLF


KBLF - Mercer County

CURRENT METAR :
  • 040452Z AUTO 00000KT 10SM BKN035 OVC044 19/17 A3026 RMK AO2 SLP211 T01940167 402500178 $

EXPIRED METARs :
  • 040352Z AUTO 00000KT 10SM SCT032 BKN041 OVC050 19/16 A3026 RMK AO2 SLP212 T01940161 $
  • 040252Z AUTO 00000KT 10SM BKN038 20/17 A3025 RMK AO2 SLP211 T02000167 53014 $

TAF KBLF
Valid from the 04 at 00:00 until the 05 at 00:00 UTC


032320Z 0400/0424 VRB02KT P6SM FEW025
FM040800 VRB02KT 4SM BR SCT015
FM040900 VRB03KT 2SM BR OVC015
TEMPO 0409/0411 1/2SM FG OVC003
FM041300 14005KT P6SM SCT020 BKN050
KZID FIR / North America



MET'MAP, your aeronautical weather chart ! - Copyright ORBIFLY December 2007 - Disclaimer

ORBIFLY MET'MAP TEAM :

Programming & Development : Alexandra Zaïnal
Original concept : Baudouin d'Aumeries
Technical & hardware support : Manuel Goepfert
Assistance : Marc-Olivier Méhu




SOURCES & CREDITS :

   NOAA       Earth
Advisory